CheckWX is a tool to help pilots better visualize weather data.  It is not intended as a substitute for an official pre-flight weather briefing.

19:57:18 UTC

KSME METAR
Lake Cumberland Regional Airport
Somerset, Kentucky, USA
Current

22 mins ago

KSME 251935Z AUTO 26006KT 10SM SCT050 27/14 A3009 RMK AO2
Observed
Jun-25 @ 19:35 UTC
Wind
  • 260° at 6 KTS
Visibility
10 SM
Flight Rules
VFR
Cloud Levels
  • Scattered at 5,000' AGL
Temperature
27°C / 81°F
Dewpoint
14°C / 57°F
Heat Index
27°C / 81°F
Humidity
45%
Altimeter
30.09" Hg
Pressure
1018.92 hPa
Previous

42 mins ago

KSME 251915Z AUTO 25007KT 10SM SCT050 27/14 A3009 RMK AO2
Observed
Jun-25 @ 19:15 UTC
Wind
  • 250° at 7 KTS
Visibility
10 SM
Flight Rules
VFR
Cloud Levels
  • Scattered at 5,000' AGL
Temperature
27°C / 81°F
Dewpoint
14°C / 57°F
Heat Index
27°C / 81°F
Humidity
45%
Altimeter
30.09" Hg
Pressure
1018.92 hPa
Previous

1 hour ago

KSME 251855Z AUTO 30007KT 10SM SCT050 SCT065 27/15 A3010 RMK AO2
Observed
Jun-25 @ 18:55 UTC
Wind
  • 300° at 7 KTS
Visibility
10 SM
Flight Rules
VFR
Cloud Levels
  • Scattered at 5,000' AGL
  • Scattered at 6,500' AGL
Temperature
27°C / 81°F
Dewpoint
15°C / 59°F
Heat Index
27°C / 81°F
Humidity
48%
Altimeter
30.1" Hg
Pressure
1019.32 hPa